createdAt,value
2022-11-17T00:00:48.616Z,12.08
2022-11-17T00:03:17.279Z,12.01
2022-11-17T00:05:46.165Z,12.17
2022-11-17T00:08:16.446Z,12.09
2022-11-17T00:10:44.882Z,12.02
2022-11-17T00:13:31.184Z,12.08
2022-11-17T00:15:59.843Z,12.13
2022-11-17T00:18:45.345Z,12.10
2022-11-17T00:21:21.433Z,12.01
2022-11-17T00:23:51.659Z,12.03
2022-11-17T00:26:22.155Z,12.08
2022-11-17T00:28:54.683Z,11.97
2022-11-17T00:31:41.905Z,12.15
2022-11-17T00:34:15.618Z,12.13
2022-11-17T00:36:47.332Z,12.00
2022-11-17T00:39:18.719Z,12.15
2022-11-17T00:41:47.108Z,12.14
2022-11-17T00:44:15.675Z,12.21
2022-11-17T00:46:44.164Z,12.34
2022-11-17T00:49:14.490Z,12.42
2022-11-17T00:51:43.177Z,12.35
2022-11-17T00:54:13.967Z,12.22
2022-11-17T00:56:43.688Z,12.35
2022-11-17T00:59:12.089Z,12.39
2022-11-17T01:01:40.794Z,12.38
2022-11-17T01:04:09.766Z,12.39
2022-11-17T01:06:40.910Z,12.28
2022-11-17T01:09:13.775Z,12.42
2022-11-17T01:11:44.189Z,12.42
2022-11-17T01:14:16.067Z,12.38
2022-11-17T01:16:44.639Z,12.50
2022-11-17T01:19:15.110Z,12.33
2022-11-17T01:21:43.813Z,12.38
2022-11-17T01:24:13.371Z,12.60
2022-11-17T01:26:45.042Z,12.40
2022-11-17T01:29:17.361Z,12.59
2022-11-17T01:31:50.740Z,12.64
2022-11-17T01:34:19.547Z,12.68
2022-11-17T01:37:05.627Z,12.55
2022-11-17T01:39:34.214Z,12.60
2022-11-17T01:42:14.051Z,12.62
2022-11-17T01:45:04.670Z,12.49
2022-11-17T01:47:49.401Z,12.70
2022-11-17T01:50:29.397Z,12.77
2022-11-17T01:53:02.158Z,12.88
2022-11-17T01:55:36.830Z,12.85
2022-11-17T01:58:10.920Z,12.65
2022-11-17T02:00:39.230Z,12.77
2022-11-17T02:03:11.284Z,12.94
2022-11-17T02:05:51.556Z,12.95
2022-11-17T02:08:24.362Z,12.64
2022-11-17T02:10:53.635Z,13.01
2022-11-17T02:13:24.126Z,12.95
2022-11-17T02:15:52.414Z,12.86
2022-11-17T02:18:21.328Z,12.85
2022-11-17T02:21:10.721Z,12.99
2022-11-17T02:24:09.219Z,12.99
2022-11-17T02:27:40.418Z,12.98
2022-11-17T02:30:15.002Z,12.79
2022-11-17T02:33:00.687Z,12.95
2022-11-17T02:35:39.843Z,12.74
2022-11-17T02:38:20.573Z,12.50
2022-11-17T02:40:55.632Z,12.43
2022-11-17T02:43:50.204Z,12.39
2022-11-17T02:46:22.672Z,12.27
2022-11-17T02:48:56.915Z,12.21
2022-11-17T02:51:26.394Z,12.22
2022-11-17T02:53:57.480Z,12.18
2022-11-17T02:56:25.780Z,12.12
2022-11-17T02:58:58.594Z,12.08
2022-11-17T03:01:55.192Z,12.11
2022-11-17T03:04:32.599Z,12.05
2022-11-17T03:07:16.705Z,11.81
2022-11-17T03:09:51.072Z,11.85
2022-11-17T03:12:29.966Z,11.95
2022-11-17T03:15:06.485Z,12.05
2022-11-17T03:17:45.140Z,12.18
2022-11-17T03:20:17.244Z,12.23
2022-11-17T03:22:54.488Z,12.02
2022-11-17T03:25:25.355Z,12.40
2022-11-17T03:27:58.580Z,12.55
2022-11-17T03:30:33.217Z,12.64
2022-11-17T03:33:12.472Z,12.65
2022-11-17T03:35:50.662Z,12.66
2022-11-17T03:38:23.068Z,12.73
2022-11-17T03:40:53.839Z,12.81
2022-11-17T03:43:22.607Z,12.64
2022-11-17T03:45:54.409Z,12.63
2022-11-17T03:48:31.108Z,12.88
2022-11-17T03:51:09.336Z,12.95
2022-11-17T03:53:38.715Z,12.87
2022-11-17T03:56:18.284Z,13.02
2022-11-17T03:58:55.698Z,12.84
2022-11-17T04:01:25.745Z,12.95
2022-11-17T04:03:55.431Z,12.77
2022-11-17T04:06:23.777Z,12.94
2022-11-17T04:08:52.082Z,12.87
2022-11-17T04:11:37.931Z,12.89
2022-11-17T04:14:23.976Z,12.86
2022-11-17T04:16:52.377Z,12.54
2022-11-17T04:19:22.002Z,12.80
2022-11-17T04:21:50.222Z,12.68
2022-11-17T04:24:18.447Z,12.79
2022-11-17T04:27:04.404Z,12.57
2022-11-17T04:29:34.091Z,12.57
2022-11-17T04:32:02.401Z,12.40
2022-11-17T04:34:32.074Z,12.64
2022-11-17T04:37:05.302Z,12.70
2022-11-17T04:39:39.994Z,12.89
2022-11-17T04:42:07.220Z,12.88
2022-11-17T04:44:35.612Z,13.09
2022-11-17T04:47:04.224Z,12.98
2022-11-17T04:49:34.565Z,13.05
2022-11-17T04:52:03.019Z,13.02
2022-11-17T04:54:31.305Z,13.04
2022-11-17T04:56:59.675Z,13.11
2022-11-17T04:59:27.884Z,13.11
2022-11-17T05:01:59.830Z,13.12
2022-11-17T05:04:48.178Z,12.96
2022-11-17T05:07:17.834Z,13.20
2022-11-17T05:09:46.162Z,13.08
2022-11-17T05:12:31.831Z,13.12
2022-11-17T05:15:00.122Z,12.93
2022-11-17T05:17:27.666Z,13.05
2022-11-17T05:19:57.297Z,13.06
2022-11-17T05:22:44.595Z,12.90
2022-11-17T05:25:12.884Z,12.79
2022-11-17T05:27:41.203Z,12.93
2022-11-17T05:30:11.884Z,12.82
2022-11-17T05:32:40.214Z,12.84
2022-11-17T05:35:09.873Z,12.86
2022-11-17T05:37:39.538Z,12.93
2022-11-17T05:40:10.074Z,12.88
2022-11-17T05:42:38.361Z,12.94
2022-11-17T05:45:08.424Z,13.03
2022-11-17T05:47:36.733Z,12.93
2022-11-17T05:50:05.631Z,13.07
2022-11-17T05:52:33.924Z,12.80
2022-11-17T05:55:03.777Z,12.86
2022-11-17T05:57:33.518Z,12.84
2022-11-17T06:00:05.191Z,12.52
2022-11-17T06:02:48.319Z,12.43
2022-11-17T06:05:20.544Z,12.41
2022-11-17T06:07:49.607Z,12.56
2022-11-17T06:10:19.876Z,12.43
2022-11-17T06:12:48.918Z,12.14
2022-11-17T06:15:17.448Z,12.34
2022-11-17T06:17:52.379Z,11.97
2022-11-17T06:20:25.946Z,12.35
2022-11-17T06:22:54.288Z,12.30
2022-11-17T06:25:24.117Z,12.25
2022-11-17T06:27:53.655Z,12.12
2022-11-17T06:30:22.199Z,12.02
2022-11-17T06:32:51.527Z,12.05
2022-11-17T06:35:19.989Z,11.93
2022-11-17T06:37:48.241Z,11.96
2022-11-17T06:40:17.513Z,12.02
2022-11-17T06:43:08.404Z,12.01
2022-11-17T06:45:38.139Z,11.92
2022-11-17T06:48:08.995Z,12.13
2022-11-17T06:50:37.664Z,11.70
2022-11-17T06:53:10.235Z,12.07
2022-11-17T06:55:39.115Z,12.01
2022-11-17T06:58:11.649Z,11.86
2022-11-17T07:00:40.210Z,11.87
2022-11-17T07:03:10.989Z,11.89
2022-11-17T07:05:40.691Z,11.94
2022-11-17T07:08:10.612Z,11.82
2022-11-17T07:10:40.846Z,11.63
2022-11-17T07:13:13.627Z,11.91
2022-11-17T07:15:41.985Z,11.75
2022-11-17T07:18:10.300Z,11.85
2022-11-17T07:20:38.600Z,11.64
2022-11-17T07:23:07.070Z,11.91
2022-11-17T07:25:35.447Z,11.96
2022-11-17T07:28:04.059Z,11.89
2022-11-17T07:30:33.988Z,11.89
2022-11-17T07:33:02.282Z,11.65
2022-11-17T07:35:31.019Z,11.87
2022-11-17T07:38:01.574Z,11.90
2022-11-17T07:40:30.800Z,11.82
2022-11-17T07:42:59.521Z,12.02
2022-11-17T07:45:31.757Z,11.98
2022-11-17T07:48:04.592Z,11.84
2022-11-17T07:50:33.773Z,11.37
2022-11-17T07:53:02.304Z,11.87
2022-11-17T07:55:30.594Z,11.71
2022-11-17T07:58:01.269Z,11.76
2022-11-17T08:00:31.800Z,11.80
2022-11-17T08:03:04.178Z,11.72
2022-11-17T08:05:41.632Z,11.63
2022-11-17T08:08:13.620Z,11.82
2022-11-17T08:10:43.062Z,11.49
2022-11-17T08:13:11.600Z,11.72
2022-11-17T08:15:42.102Z,11.82
2022-11-17T08:18:11.969Z,11.76
2022-11-17T08:20:40.245Z,11.68
2022-11-17T08:23:08.981Z,11.74
2022-11-17T08:25:37.316Z,11.53
2022-11-17T08:28:05.969Z,11.75
2022-11-17T08:30:37.059Z,11.43
2022-11-17T08:33:05.382Z,11.69
2022-11-17T08:35:37.580Z,11.64
2022-11-17T08:38:06.864Z,11.65
2022-11-17T08:40:35.406Z,11.65
2022-11-17T08:43:03.719Z,11.66
2022-11-17T08:45:32.610Z,11.72
2022-11-17T08:48:01.134Z,11.94
2022-11-17T08:50:29.585Z,11.99
2022-11-17T08:53:01.394Z,12.15
2022-11-17T08:55:29.823Z,12.10
2022-11-17T08:57:58.426Z,11.96
2022-11-17T09:00:26.762Z,11.87
2022-11-17T09:02:55.010Z,11.68
2022-11-17T09:05:25.004Z,11.61
2022-11-17T09:07:53.550Z,11.83
2022-11-17T09:10:23.389Z,11.87
2022-11-17T09:12:51.789Z,11.67
2022-11-17T09:15:20.283Z,11.71
2022-11-17T09:17:48.672Z,11.71
2022-11-17T09:20:18.011Z,11.70
2022-11-17T09:22:46.738Z,11.76
2022-11-17T09:25:16.872Z,11.52
2022-11-17T09:27:47.690Z,11.54
2022-11-17T09:30:21.945Z,11.46
2022-11-17T09:32:50.778Z,11.29
2022-11-17T09:35:19.855Z,11.43
2022-11-17T09:37:48.193Z,11.43
2022-11-17T09:40:21.001Z,11.37
2022-11-17T09:42:50.761Z,11.57
2022-11-17T09:45:24.157Z,11.55
2022-11-17T09:48:18.605Z,11.69
2022-11-17T09:50:51.448Z,11.81
2022-11-17T09:53:26.598Z,11.73
2022-11-17T09:55:59.133Z,11.75
2022-11-17T09:58:39.009Z,11.88
2022-11-17T10:01:12.492Z,11.77
2022-11-17T10:03:46.217Z,11.52
2022-11-17T10:06:20.954Z,11.36
2022-11-17T10:09:00.606Z,11.49
2022-11-17T10:11:35.321Z,11.51
2022-11-17T10:14:14.409Z,11.59
2022-11-17T10:16:47.693Z,11.79
2022-11-17T10:19:19.088Z,11.52
2022-11-17T10:21:51.722Z,11.61
2022-11-17T10:24:40.843Z,11.48
2022-11-17T10:27:23.881Z,11.33
2022-11-17T10:30:01.957Z,11.54
2022-11-17T10:32:33.812Z,11.61
2022-11-17T10:35:16.110Z,11.73
2022-11-17T10:37:53.799Z,11.57
2022-11-17T10:40:25.839Z,11.60
2022-11-17T10:43:22.045Z,11.59
2022-11-17T10:45:55.129Z,11.69
2022-11-17T10:48:30.876Z,11.72
2022-11-17T10:51:01.308Z,11.27
2022-11-17T10:53:44.522Z,11.28
2022-11-17T10:56:17.196Z,11.44
2022-11-17T10:59:03.577Z,11.43
2022-11-17T11:01:36.095Z,11.68
2022-11-17T11:04:08.405Z,11.57
2022-11-17T11:06:37.525Z,11.28
2022-11-17T11:09:13.208Z,11.27
2022-11-17T11:11:45.632Z,11.46
2022-11-17T11:14:21.995Z,11.60
2022-11-17T11:16:52.403Z,11.52
2022-11-17T11:19:22.206Z,11.37
2022-11-17T11:22:28.035Z,11.77
2022-11-17T11:25:08.035Z,11.91
2022-11-17T11:27:57.396Z,12.04
2022-11-17T11:30:25.830Z,12.02
2022-11-17T11:33:15.805Z,12.08
2022-11-17T11:36:06.814Z,11.89
2022-11-17T11:38:57.971Z,11.75
2022-11-17T11:41:43.513Z,11.52
2022-11-17T11:44:42.197Z,11.68
2022-11-17T11:47:29.508Z,11.72
2022-11-17T11:50:06.611Z,11.75
2022-11-17T11:52:41.420Z,11.66
2022-11-17T11:55:21.612Z,11.77
2022-11-17T11:58:12.290Z,11.65
2022-11-17T12:00:42.503Z,11.60
2022-11-17T12:03:25.454Z,11.57
2022-11-17T12:06:35.518Z,11.67
2022-11-17T12:09:32.800Z,11.59
2022-11-17T12:12:07.969Z,11.68
2022-11-17T12:14:38.895Z,11.47
2022-11-17T12:17:23.341Z,11.53
2022-11-17T12:19:59.797Z,11.54
2022-11-17T12:22:57.630Z,11.58
2022-11-17T12:25:31.068Z,11.61
2022-11-17T12:27:59.619Z,11.56
2022-11-17T12:30:53.843Z,11.86
2022-11-17T12:33:22.985Z,11.86
2022-11-17T12:36:31.208Z,12.04
2022-11-17T12:39:02.812Z,11.97
2022-11-17T12:42:06.662Z,12.11
2022-11-17T12:45:00.230Z,11.96
2022-11-17T12:47:31.721Z,12.13
2022-11-17T12:50:38.409Z,11.97
2022-11-17T12:53:43.349Z,11.74
2022-11-17T12:56:36.989Z,11.97
2022-11-17T12:59:49.506Z,11.99
2022-11-17T13:02:48.433Z,12.01
2022-11-17T13:05:21.776Z,11.73
2022-11-17T13:07:50.653Z,11.99
2022-11-17T13:10:27.651Z,12.07
2022-11-17T13:15:54.347Z,12.31
2022-11-17T13:18:34.067Z,12.08
2022-11-17T13:21:03.421Z,12.18
2022-11-17T13:23:33.621Z,12.02
2022-11-17T13:26:19.943Z,12.07
2022-11-17T13:28:49.279Z,12.01
2022-11-17T13:31:23.858Z,12.16
2022-11-17T13:34:05.639Z,12.16
2022-11-17T13:36:34.290Z,12.39
2022-11-17T13:39:04.308Z,12.46
2022-11-17T13:41:40.950Z,12.34
2022-11-17T13:44:16.648Z,12.19
2022-11-17T13:46:46.382Z,12.22
2022-11-17T13:49:41.674Z,12.05
2022-11-17T13:52:24.484Z,12.36
2022-11-17T13:54:53.312Z,12.40
2022-11-17T13:57:28.358Z,12.21
2022-11-17T13:59:58.510Z,12.34
2022-11-17T14:02:30.304Z,12.41
2022-11-17T14:05:08.184Z,12.29
2022-11-17T14:07:38.885Z,12.47
2022-11-17T14:10:15.123Z,12.44
2022-11-17T14:12:43.509Z,12.43
2022-11-17T14:15:16.207Z,12.48
2022-11-17T14:17:51.657Z,12.55
2022-11-17T14:20:31.089Z,12.59
2022-11-17T14:23:03.777Z,12.67
2022-11-17T14:25:35.234Z,12.56
2022-11-17T14:28:03.599Z,12.58
2022-11-17T14:30:32.045Z,12.53
2022-11-17T14:33:09.087Z,12.57
2022-11-17T14:35:40.574Z,12.55
2022-11-17T14:38:11.541Z,12.47
2022-11-17T14:40:39.870Z,12.56
2022-11-17T14:43:08.174Z,12.65
2022-11-17T14:45:36.500Z,12.53
2022-11-17T14:48:07.176Z,12.68
2022-11-17T14:50:35.591Z,12.52
2022-11-17T14:53:04.027Z,12.40
2022-11-17T14:55:32.356Z,12.36
2022-11-17T14:58:00.672Z,12.40
2022-11-17T15:00:29.287Z,12.43
2022-11-17T15:02:58.015Z,12.46
2022-11-17T15:05:27.763Z,12.49
2022-11-17T15:07:57.490Z,12.66
2022-11-17T15:10:26.028Z,12.65
2022-11-17T15:12:54.554Z,12.58
2022-11-17T15:15:22.881Z,12.55
2022-11-17T15:17:51.202Z,12.41
2022-11-17T15:20:19.667Z,12.51
2022-11-17T15:22:51.272Z,12.52
2022-11-17T15:25:19.817Z,12.40
2022-11-17T15:27:48.314Z,12.38
2022-11-17T15:30:17.231Z,12.36
2022-11-17T15:32:45.609Z,12.21
2022-11-17T15:35:13.986Z,12.22
2022-11-17T15:37:42.268Z,12.30
2022-11-17T15:40:18.096Z,12.26
2022-11-17T15:42:48.159Z,12.03
2022-11-17T15:45:16.716Z,12.07
2022-11-17T15:47:45.017Z,12.19
2022-11-17T15:50:13.580Z,12.02
2022-11-17T15:53:02.874Z,12.08
2022-11-17T15:55:31.461Z,11.91
2022-11-17T15:57:59.868Z,12.00
2022-11-17T16:00:28.222Z,11.92
2022-11-17T16:02:58.705Z,11.88
2022-11-17T16:05:27.346Z,11.95
2022-11-17T16:07:55.790Z,12.02
2022-11-17T16:10:24.269Z,11.86
2022-11-17T16:12:54.128Z,11.86
2022-11-17T16:15:22.426Z,11.85
2022-11-17T16:17:50.749Z,11.86
2022-11-17T16:20:19.557Z,11.94
2022-11-17T16:22:48.046Z,11.91
2022-11-17T16:25:16.468Z,11.84
2022-11-17T16:27:45.257Z,12.01
2022-11-17T16:30:15.962Z,11.86
2022-11-17T16:32:44.417Z,11.93
2022-11-17T16:35:12.806Z,11.82
2022-11-17T16:37:41.158Z,11.81
2022-11-17T16:40:10.866Z,11.76
2022-11-17T16:42:39.143Z,11.69
2022-11-17T16:45:08.753Z,11.78
2022-11-17T16:47:38.506Z,11.72
2022-11-17T16:50:08.038Z,11.78
2022-11-17T16:52:36.563Z,11.81
2022-11-17T16:55:05.604Z,11.84
2022-11-17T16:57:33.990Z,11.92
2022-11-17T17:00:02.355Z,11.90
2022-11-17T17:02:30.670Z,11.99
2022-11-17T17:05:00.354Z,11.80
2022-11-17T17:07:28.696Z,11.67
2022-11-17T17:09:56.973Z,11.78
2022-11-17T17:12:25.239Z,11.73
2022-11-17T17:14:53.679Z,11.70
2022-11-17T17:17:22.177Z,11.68
2022-11-17T17:19:50.776Z,11.69
2022-11-17T17:22:20.731Z,11.71
2022-11-17T17:24:49.066Z,11.74
2022-11-17T17:27:17.398Z,11.65
2022-11-17T17:29:45.825Z,11.55
2022-11-17T17:32:14.246Z,11.59
2022-11-17T17:34:42.610Z,11.59
2022-11-17T17:37:10.919Z,11.66
2022-11-17T17:39:40.593Z,11.59
2022-11-17T17:42:09.018Z,11.53
2022-11-17T17:44:37.449Z,11.53
2022-11-17T17:47:06.327Z,11.45
2022-11-17T17:49:34.653Z,11.44
2022-11-17T17:52:03.028Z,11.37
2022-11-17T17:54:31.468Z,11.39
2022-11-17T17:57:01.458Z,11.38
2022-11-17T17:59:29.810Z,11.54
2022-11-17T18:01:58.205Z,11.52
2022-11-17T18:04:26.905Z,11.47
2022-11-17T18:06:56.655Z,11.30
2022-11-17T18:09:25.078Z,11.39
2022-11-17T18:11:53.442Z,11.44
2022-11-17T18:14:24.530Z,11.33
2022-11-17T18:16:53.922Z,11.33
2022-11-17T18:19:25.873Z,11.23
2022-11-17T18:21:56.693Z,11.22
2022-11-17T18:24:25.207Z,11.31
2022-11-17T18:26:53.479Z,11.16
2022-11-17T18:29:23.237Z,11.28
2022-11-17T18:31:51.613Z,11.19
2022-11-17T18:34:22.573Z,11.22
2022-11-17T18:36:52.138Z,11.11
2022-11-17T18:39:21.270Z,11.35
2022-11-17T18:41:49.719Z,11.36
2022-11-17T18:44:19.740Z,11.20
2022-11-17T18:46:49.635Z,11.27
2022-11-17T18:49:18.184Z,11.27
2022-11-17T18:51:46.984Z,11.31
2022-11-17T18:54:15.566Z,11.33
2022-11-17T18:56:44.550Z,11.31
2022-11-17T18:59:13.275Z,11.45
2022-11-17T19:01:43.956Z,11.25
2022-11-17T19:04:15.574Z,11.29
2022-11-17T19:06:44.128Z,11.24
2022-11-17T19:09:13.751Z,11.18
2022-11-17T19:11:42.515Z,11.28
2022-11-17T19:14:11.011Z,10.94
2022-11-17T19:16:44.407Z,11.12
2022-11-17T19:19:16.144Z,11.20
2022-11-17T19:21:45.164Z,11.21
2022-11-17T19:24:14.879Z,11.21
2022-11-17T19:26:43.366Z,11.27
2022-11-17T19:29:17.193Z,11.35
2022-11-17T19:31:47.465Z,11.29
2022-11-17T19:34:19.245Z,11.41
2022-11-17T19:36:47.579Z,11.29
2022-11-17T19:39:17.057Z,11.28
2022-11-17T19:41:47.652Z,11.28
2022-11-17T19:44:16.326Z,11.32
2022-11-17T19:46:44.773Z,11.18
2022-11-17T19:49:14.007Z,11.20
2022-11-17T19:51:44.307Z,11.13
2022-11-17T19:54:14.711Z,10.92
2022-11-17T19:56:43.077Z,11.16
2022-11-17T19:59:16.020Z,11.20
2022-11-17T20:01:45.316Z,11.18
2022-11-17T20:04:13.805Z,11.04
2022-11-17T20:06:43.863Z,11.08
2022-11-17T20:09:15.369Z,10.97
2022-11-17T20:11:44.457Z,10.95
2022-11-17T20:14:14.556Z,11.01
2022-11-17T20:16:43.025Z,10.94
2022-11-17T20:19:12.171Z,10.79
2022-11-17T20:21:40.903Z,10.74
2022-11-17T20:24:11.039Z,10.73
2022-11-17T20:26:41.068Z,10.64
2022-11-17T20:29:09.875Z,10.61
2022-11-17T20:31:38.783Z,10.65
2022-11-17T20:34:07.448Z,10.71
2022-11-17T20:36:35.985Z,10.77
2022-11-17T20:39:07.305Z,10.74
2022-11-17T20:41:37.048Z,10.75
2022-11-17T20:44:23.658Z,10.70
2022-11-17T20:46:54.050Z,10.62
2022-11-17T20:49:23.482Z,10.71
2022-11-17T20:51:51.903Z,10.89
2022-11-17T20:54:20.216Z,10.86
2022-11-17T20:56:50.215Z,10.63
2022-11-17T20:59:20.195Z,10.74
2022-11-17T21:01:50.485Z,10.72
2022-11-17T21:04:19.204Z,10.59
2022-11-17T21:06:47.593Z,10.66
2022-11-17T21:09:16.265Z,10.63
2022-11-17T21:12:00.144Z,10.66
2022-11-17T21:14:30.642Z,10.49
2022-11-17T21:17:00.479Z,10.46
2022-11-17T21:19:30.197Z,10.56
2022-11-17T21:21:58.601Z,10.66
2022-11-17T21:24:27.844Z,10.64
2022-11-17T21:26:56.892Z,10.66
2022-11-17T21:29:25.205Z,10.65
2022-11-17T21:31:54.873Z,10.63
2022-11-17T21:34:23.352Z,10.45
2022-11-17T21:36:51.864Z,10.53
2022-11-17T21:39:20.122Z,10.43
2022-11-17T21:41:48.526Z,10.40
2022-11-17T21:44:16.929Z,10.44
2022-11-17T21:46:45.260Z,10.32
2022-11-17T21:49:15.276Z,10.25
2022-11-17T21:51:44.891Z,10.27
2022-11-17T21:54:13.271Z,10.24
2022-11-17T21:56:41.800Z,10.25
2022-11-17T21:59:14.037Z,10.21
2022-11-17T22:01:42.574Z,10.12
2022-11-17T22:04:12.837Z,9.91
2022-11-17T22:06:42.846Z,10.07
2022-11-17T22:09:11.183Z,9.98
2022-11-17T22:11:39.836Z,9.81
2022-11-17T22:14:11.818Z,9.82
2022-11-17T22:16:42.160Z,9.67
2022-11-17T22:19:12.044Z,9.83
2022-11-17T22:21:40.555Z,9.74
2022-11-17T22:24:12.735Z,9.80
2022-11-17T22:26:43.566Z,9.71
2022-11-17T22:29:14.711Z,9.73
2022-11-17T22:31:44.141Z,9.55
2022-11-17T22:34:13.088Z,9.67
2022-11-17T22:36:41.722Z,9.53
2022-11-17T22:39:11.617Z,9.47
2022-11-17T22:41:40.037Z,9.55
2022-11-17T22:44:08.458Z,9.46
2022-11-17T22:46:36.813Z,9.50
2022-11-17T22:49:05.224Z,9.53
2022-11-17T22:51:50.810Z,9.49
2022-11-17T22:54:20.650Z,9.50
2022-11-17T22:56:48.910Z,9.16
2022-11-17T22:59:17.568Z,9.56
2022-11-17T23:01:46.056Z,9.53
2022-11-17T23:04:16.344Z,9.58
2022-11-17T23:06:44.980Z,9.59
2022-11-17T23:09:14.210Z,9.54
2022-11-17T23:11:44.876Z,9.59
2022-11-17T23:14:15.168Z,9.44
2022-11-17T23:16:43.693Z,9.37
2022-11-17T23:19:15.687Z,9.39
2022-11-17T23:21:44.299Z,9.46
2022-11-17T23:24:14.838Z,9.43
2022-11-17T23:26:44.760Z,9.42
2022-11-17T23:29:13.879Z,9.47
2022-11-17T23:31:42.334Z,9.39
2022-11-17T23:34:11.327Z,9.25
2022-11-17T23:36:39.949Z,9.41
2022-11-17T23:39:08.335Z,9.39
2022-11-17T23:41:36.846Z,9.03
2022-11-17T23:44:07.191Z,9.37
2022-11-17T23:46:35.632Z,9.16
2022-11-17T23:49:04.800Z,9.40
2022-11-17T23:51:33.281Z,8.81
2022-11-17T23:54:02.916Z,9.35
2022-11-17T23:56:34.498Z,9.13
2022-11-17T23:59:03.614Z,9.36
